Freeland, MI

1:48 PM EDT on October 01, 2016 (GMT -0400)
Mountain View | | Change Station

Elev 608 ft 43.47 °N, 84.12 °W | Updated 10 seconds ago

Overcast
Overcast
61.3 °F
Feels Like 61.3 °F
N
2.0
Wind Variable Wind from East
Gusts 3.0 mph

Today
High -- | Low -- °F
--% Chance of Precip.
Yesterday
High -- | Low -- °F
Precip. -- in
Pressure 30.08 in
Visibility 6.0 miles
Clouds Overcast 700 ft
Dew Point 59 °F
Humidity 92%
Rainfall 0.00 in
Snow Depth Not available.
7:34 AM 7:16 PM
New Moon, 1% visible
SPECI KMBS 011719Z 08006KT 6SM BR OVC007 17/16 A3008 RMK AO2 CIG 006V011 T01670156
Pressure 30.08 in
Visibility 6.0 miles
Clouds Overcast 700 ft
Dew Point 59 °F
Humidity 92%
Rainfall 0.00 in
Snow Depth Not available.
7:34 AM 7:16 PM
New Moon, 1% visible
SPECI KMBS 011719Z 08006KT 6SM BR OVC007 17/16 A3008 RMK AO2 CIG 006V011 T01670156

10-Day Weather Forecast

Almanac

Astronomy

Oct. 01, 2016 Rise Set
Actual Time
Civil Twilight
Nautical Twilight
Astronomical Twilight
Moon
Length of Visible Light
Length of Day
Tomorrow will be .
, % of the Moon is Illuminated

Today's Extremes

State Highs State Lows

Community

WunderPhotos

Upload Photos

1,942,965 photos uploaded!

WunderBlog® & News

Nearby

Air Quality

  Air Quality AQ Index Pollutant
Not available.

Snow Depth

Station Depth Elevation

Earthquake Activity

City Distance Mag. Time & Date
Minimum magnitude displayed is 2.5.

Coastal Water Temperatures

Place Temperature

Stations

Nearby Weather Stations

Station Location Temp. Windchill Dew Point Humidity Wind Precip. Elev Updated Type
                   

Watches & Warnings

There are currently no watches in effect.